createdAt,value
2023-03-26T00:01:33.807Z,5.30
2023-03-26T00:04:02.293Z,5.30
2023-03-26T00:06:33.944Z,5.30
2023-03-26T00:09:01.563Z,5.30
2023-03-26T00:11:29.568Z,5.30
2023-03-26T00:13:58.135Z,5.40
2023-03-26T00:16:28.842Z,5.50
2023-03-26T00:18:57.879Z,5.50
2023-03-26T00:21:28.745Z,5.60
2023-03-26T00:24:09.641Z,5.70
2023-03-26T00:26:38.426Z,5.70
2023-03-26T00:31:35.766Z,5.80
2023-03-26T00:34:05.515Z,5.90
2023-03-26T00:39:06.277Z,5.90
2023-03-26T00:41:37.197Z,5.90
2023-03-26T00:44:05.245Z,5.90
2023-03-26T00:49:01.914Z,6.00
2023-03-26T00:51:29.937Z,6.00
2023-03-26T00:53:58.379Z,6.10
2023-03-26T01:01:27.862Z,6.20
2023-03-26T01:04:09.390Z,6.30
2023-03-26T01:06:42.272Z,6.40
2023-03-26T01:09:36.796Z,6.40
2023-03-26T01:12:07.516Z,6.40
2023-03-26T01:14:35.587Z,6.50
2023-03-26T01:17:06.866Z,6.50
2023-03-26T01:19:53.291Z,6.60
2023-03-26T01:22:24.507Z,6.60
2023-03-26T01:24:53.876Z,6.70
2023-03-26T01:32:44.227Z,6.90
2023-03-26T01:38:13.688Z,7.00
2023-03-26T01:41:10.458Z,7.10
2023-03-26T01:44:36.455Z,7.10
2023-03-26T01:47:05.609Z,7.20
2023-03-26T01:49:33.575Z,7.30
2023-03-26T01:52:01.630Z,7.30
2023-03-26T01:54:31.929Z,7.30
2023-03-26T01:57:10.755Z,7.20
2023-03-26T01:59:59.648Z,7.30
2023-03-26T02:02:38.856Z,7.30
2023-03-26T02:05:32.174Z,7.20
2023-03-26T02:08:35.842Z,7.20
2023-03-26T02:11:11.444Z,7.20
2023-03-26T02:13:41.644Z,7.10
2023-03-26T02:16:14.326Z,7.10
2023-03-26T02:18:43.472Z,7.20
2023-03-26T02:21:20.443Z,7.20
2023-03-26T02:23:50.887Z,7.10
2023-03-26T02:26:20.518Z,7.20
2023-03-26T02:29:10.102Z,7.20
2023-03-26T02:34:08.433Z,7.20
2023-03-26T02:36:38.750Z,7.20
2023-03-26T02:39:10.890Z,7.10
2023-03-26T02:41:39.434Z,7.10
2023-03-26T02:44:12.434Z,7.10
2023-03-26T02:46:58.789Z,7.10
2023-03-26T02:49:41.482Z,7.10
2023-03-26T02:57:20.831Z,7.00
2023-03-26T02:59:50.446Z,7.00
2023-03-26T03:02:38.461Z,7.00
2023-03-26T03:05:38.025Z,7.00
2023-03-26T03:08:35.092Z,7.00
2023-03-26T03:11:11.452Z,7.10
2023-03-26T03:13:47.345Z,7.10
2023-03-26T03:21:37.472Z,7.00
2023-03-26T03:24:06.325Z,7.00
2023-03-26T03:32:25.771Z,7.00
2023-03-26T03:34:57.660Z,7.00
2023-03-26T03:37:27.046Z,7.00
2023-03-26T03:42:29.948Z,7.00
2023-03-26T03:45:02.122Z,7.00
2023-03-26T03:47:58.114Z,7.00
2023-03-26T03:50:35.694Z,7.00
2023-03-26T03:53:37.362Z,7.00
2023-03-26T03:56:10.374Z,7.00
2023-03-26T03:58:58.364Z,7.00
2023-03-26T04:01:32.978Z,7.00
2023-03-26T04:04:06.219Z,7.00
2023-03-26T04:09:24.133Z,7.10
2023-03-26T04:11:53.285Z,7.10
2023-03-26T04:14:37.315Z,7.10
2023-03-26T04:17:10.384Z,7.10
2023-03-26T04:19:39.523Z,7.10
2023-03-26T04:22:12.001Z,7.10
2023-03-26T04:24:55.248Z,7.10
2023-03-26T04:27:27.338Z,7.10
2023-03-26T04:30:03.885Z,7.10
2023-03-26T04:32:35.273Z,7.10
2023-03-26T04:35:04.216Z,7.10
2023-03-26T04:37:39.718Z,7.10
2023-03-26T04:40:22.057Z,7.00
2023-03-26T04:43:13.774Z,7.10
2023-03-26T04:46:02.917Z,7.00
2023-03-26T04:48:33.069Z,7.00
2023-03-26T04:51:01.387Z,7.00
2023-03-26T04:53:29.036Z,7.00
2023-03-26T04:56:46.659Z,7.10
2023-03-26T04:59:30.077Z,7.00
2023-03-26T05:02:00.312Z,7.00
2023-03-26T05:04:31.957Z,7.00
2023-03-26T05:07:00.828Z,7.00
2023-03-26T05:09:37.344Z,7.00
2023-03-26T05:12:22.908Z,6.90
2023-03-26T05:15:07.175Z,6.90
2023-03-26T05:18:08.931Z,6.90
2023-03-26T05:20:50.251Z,6.90
2023-03-26T05:23:18.108Z,6.90
2023-03-26T05:25:54.569Z,6.90
2023-03-26T05:28:26.698Z,6.90
2023-03-26T05:30:58.124Z,6.90
2023-03-26T05:33:29.024Z,6.90
2023-03-26T05:36:09.840Z,6.90
2023-03-26T05:38:37.583Z,6.90
2023-03-26T05:41:09.870Z,6.90
2023-03-26T05:43:41.975Z,6.90
2023-03-26T05:46:12.723Z,6.80
2023-03-26T05:48:40.426Z,6.90
2023-03-26T05:51:09.106Z,6.90
2023-03-26T05:53:41.782Z,6.80
2023-03-26T05:56:21.381Z,6.80
2023-03-26T05:59:03.820Z,6.80
2023-03-26T06:02:10.759Z,6.80
2023-03-26T06:04:56.929Z,6.80
2023-03-26T06:07:53.523Z,6.80
2023-03-26T06:10:21.995Z,6.70
2023-03-26T06:12:49.774Z,6.70
2023-03-26T06:15:18.251Z,6.70
2023-03-26T06:18:04.040Z,6.70
2023-03-26T06:20:51.150Z,6.70
2023-03-26T06:23:41.713Z,6.70
2023-03-26T06:26:16.788Z,6.70
2023-03-26T06:29:02.068Z,6.70
2023-03-26T06:31:38.204Z,6.70
2023-03-26T06:34:16.456Z,6.70
2023-03-26T06:36:44.194Z,6.70
2023-03-26T06:39:12.461Z,6.70
2023-03-26T06:44:36.624Z,6.70
2023-03-26T06:47:22.921Z,6.70
2023-03-26T06:49:50.626Z,6.80
2023-03-26T06:55:25.980Z,6.80
2023-03-26T06:58:25.241Z,6.80
2023-03-26T07:01:11.758Z,6.80
2023-03-26T07:06:46.689Z,6.90
2023-03-26T07:09:32.988Z,6.80
2023-03-26T07:12:23.537Z,6.80
2023-03-26T07:15:07.233Z,6.80
2023-03-26T07:17:58.792Z,6.80
2023-03-26T07:20:31.998Z,6.80
2023-03-26T07:25:44.356Z,6.80
2023-03-26T07:29:05.262Z,6.80
2023-03-26T07:32:09.563Z,6.80
2023-03-26T07:34:59.430Z,6.90
2023-03-26T07:38:13.928Z,6.90
2023-03-26T07:41:28.054Z,6.90
2023-03-26T07:44:43.415Z,6.90
2023-03-26T07:47:33.276Z,6.90
2023-03-26T07:50:26.538Z,6.90
2023-03-26T07:53:09.856Z,6.90
2023-03-26T07:56:14.140Z,6.90
2023-03-26T07:59:16.445Z,7.00
2023-03-26T08:02:37.017Z,7.00
2023-03-26T08:05:37.485Z,7.00
2023-03-26T08:08:51.801Z,7.00
2023-03-26T08:12:26.065Z,7.00
2023-03-26T08:15:29.483Z,6.90
2023-03-26T08:18:26.149Z,6.90
2023-03-26T08:21:10.285Z,6.90
2023-03-26T08:24:09.592Z,6.90
2023-03-26T08:27:09.478Z,6.90
2023-03-26T08:30:03.910Z,6.90
2023-03-26T08:32:32.040Z,6.90
2023-03-26T08:35:00.269Z,6.90
2023-03-26T08:39:57.206Z,7.00
2023-03-26T08:42:25.589Z,7.00
2023-03-26T08:45:24.242Z,7.10
2023-03-26T08:48:37.133Z,7.20
2023-03-26T08:51:29.228Z,7.40
2023-03-26T08:54:32.683Z,7.50
2023-03-26T08:57:18.198Z,7.70
2023-03-26T09:00:13.218Z,7.80
2023-03-26T09:03:08.212Z,8.00
2023-03-26T09:06:03.223Z,8.10
2023-03-26T09:36:24.088Z,8.60
2023-03-26T09:39:27.616Z,8.70
2023-03-26T09:42:07.965Z,8.80
2023-03-26T09:45:10.768Z,8.80
2023-03-26T09:47:48.902Z,8.90
2023-03-26T09:50:23.988Z,8.90
2023-03-26T09:53:20.389Z,9.00
2023-03-26T09:55:51.497Z,9.10
2023-03-26T09:58:25.809Z,9.10
2023-03-26T10:01:16.768Z,9.20
2023-03-26T10:03:58.256Z,9.30
2023-03-26T10:06:44.627Z,9.30
2023-03-26T10:09:37.519Z,9.50
2023-03-26T10:12:22.553Z,9.60
2023-03-26T10:15:25.186Z,9.70
2023-03-26T10:18:02.728Z,9.80
2023-03-26T10:21:50.990Z,9.90
2023-03-26T10:24:27.753Z,9.90
2023-03-26T10:27:19.700Z,10.00
2023-03-26T10:29:59.508Z,10.00
2023-03-26T10:33:06.071Z,10.10
2023-03-26T10:35:59.725Z,10.10
2023-03-26T10:39:06.859Z,10.50
2023-03-26T10:41:53.843Z,11.40
2023-03-26T10:44:43.438Z,11.40
2023-03-26T10:47:22.922Z,12.00
2023-03-26T10:50:28.061Z,11.90
2023-03-26T10:52:58.878Z,11.80
2023-03-26T10:55:35.298Z,11.70
2023-03-26T10:58:24.364Z,11.70
2023-03-26T11:01:06.129Z,11.90
2023-03-26T11:03:52.208Z,12.40
2023-03-26T11:06:51.172Z,12.60
2023-03-26T11:09:31.342Z,12.60
2023-03-26T11:12:26.897Z,12.70
2023-03-26T11:15:05.378Z,12.80
2023-03-26T11:17:59.050Z,12.70
2023-03-26T11:20:39.195Z,12.60
2023-03-26T11:23:15.503Z,12.50
2023-03-26T11:25:47.944Z,12.20
2023-03-26T11:28:40.400Z,12.20
2023-03-26T11:31:45.459Z,12.00
2023-03-26T11:34:20.386Z,11.70
2023-03-26T11:36:54.073Z,11.50
2023-03-26T11:39:26.493Z,11.50
2023-03-26T11:42:12.668Z,11.50
2023-03-26T11:45:21.009Z,11.50
2023-03-26T11:47:56.678Z,11.70
2023-03-26T11:50:28.610Z,12.30
2023-03-26T11:53:03.328Z,13.30
2023-03-26T11:55:32.038Z,13.50
2023-03-26T11:58:03.500Z,13.80
2023-03-26T12:00:31.441Z,14.00
2023-03-26T12:03:00.437Z,14.00
2023-03-26T12:05:46.434Z,14.00
2023-03-26T12:08:27.126Z,13.80
2023-03-26T12:11:08.967Z,13.60
2023-03-26T12:13:53.146Z,13.00
2023-03-26T12:16:22.543Z,12.90
2023-03-26T12:19:02.786Z,12.70
2023-03-26T12:21:49.839Z,12.30
2023-03-26T12:24:34.837Z,12.20
2023-03-26T12:27:20.604Z,12.20
2023-03-26T12:29:55.128Z,12.10
2023-03-26T12:32:32.392Z,12.10
2023-03-26T12:35:14.169Z,12.10
2023-03-26T12:37:43.434Z,12.30
2023-03-26T12:40:30.181Z,12.30
2023-03-26T12:44:55.537Z,12.40
2023-03-26T12:47:55.672Z,12.40
2023-03-26T12:49:18.777Z,12.30
2023-03-26T12:54:33.262Z,11.90
2023-03-26T12:57:11.900Z,11.80
2023-03-26T13:00:14.886Z,11.70
2023-03-26T13:02:48.570Z,11.50
2023-03-26T13:05:24.953Z,11.50
2023-03-26T13:08:01.518Z,11.30
2023-03-26T13:10:50.377Z,11.20
2023-03-26T13:13:56.427Z,11.00
2023-03-26T13:16:49.737Z,11.00
2023-03-26T13:19:38.227Z,10.90
2023-03-26T13:22:38.477Z,10.90
2023-03-26T13:25:38.798Z,10.90
2023-03-26T13:28:34.129Z,11.00
2023-03-26T13:31:26.029Z,11.10
2023-03-26T13:34:05.990Z,11.40
2023-03-26T13:36:59.608Z,11.70
2023-03-26T13:39:33.359Z,12.10
2023-03-26T13:42:37.627Z,12.40
2023-03-26T13:45:35.689Z,12.40
2023-03-26T13:48:05.758Z,12.40
2023-03-26T13:50:38.607Z,12.20
2023-03-26T13:53:12.742Z,11.90
2023-03-26T13:55:42.775Z,11.80
2023-03-26T13:58:42.682Z,11.60
2023-03-26T14:01:19.531Z,11.40
2023-03-26T14:04:06.755Z,11.20
2023-03-26T14:06:57.580Z,11.00
2023-03-26T14:09:34.527Z,10.90
2023-03-26T14:12:49.452Z,10.70
2023-03-26T14:15:31.403Z,10.70
2023-03-26T14:18:03.842Z,10.70
2023-03-26T14:20:49.342Z,10.60
2023-03-26T14:23:16.961Z,10.70
2023-03-26T14:25:50.718Z,10.80
2023-03-26T14:28:49.521Z,11.10
2023-03-26T14:31:30.072Z,11.30
2023-03-26T14:34:16.167Z,11.50
2023-03-26T14:37:08.240Z,11.50
2023-03-26T14:40:15.128Z,11.50
2023-03-26T14:42:55.940Z,11.70
2023-03-26T14:45:52.056Z,11.80
2023-03-26T14:48:58.149Z,11.70
2023-03-26T14:51:47.024Z,11.50
2023-03-26T14:54:27.146Z,11.50
2023-03-26T14:57:25.096Z,11.30
2023-03-26T15:00:16.805Z,11.10
2023-03-26T15:03:07.600Z,10.90
2023-03-26T15:05:44.122Z,10.80
2023-03-26T15:08:14.523Z,10.80
2023-03-26T15:11:03.213Z,10.90
2023-03-26T15:13:55.392Z,11.60
2023-03-26T15:16:47.810Z,11.00
2023-03-26T15:19:46.978Z,11.10
2023-03-26T15:22:32.859Z,11.00
2023-03-26T15:25:17.768Z,11.00
2023-03-26T15:28:06.424Z,10.80
2023-03-26T15:31:10.042Z,10.80
2023-03-26T15:34:07.749Z,10.70
2023-03-26T15:37:00.389Z,10.60
2023-03-26T15:40:08.814Z,10.60
2023-03-26T15:42:51.601Z,10.40
2023-03-26T15:45:32.402Z,10.20
2023-03-26T15:48:12.104Z,10.20
2023-03-26T15:51:06.426Z,10.20
2023-03-26T15:53:43.456Z,10.10
2023-03-26T15:56:52.951Z,10.10
2023-03-26T15:59:40.093Z,9.90
2023-03-26T16:02:23.658Z,9.90
2023-03-26T16:05:26.644Z,9.90
2023-03-26T16:08:02.877Z,9.90
2023-03-26T16:10:52.666Z,9.80
2023-03-26T16:13:20.489Z,9.80
2023-03-26T16:16:14.476Z,9.70
2023-03-26T16:18:44.017Z,9.70
2023-03-26T16:21:36.592Z,9.70
2023-03-26T16:24:08.186Z,9.60
2023-03-26T16:26:51.342Z,9.60
2023-03-26T16:29:25.745Z,9.50
2023-03-26T16:32:31.139Z,9.40
2023-03-26T16:35:08.714Z,9.30
2023-03-26T16:37:39.783Z,9.30
2023-03-26T16:40:16.722Z,9.20
2023-03-26T16:43:19.662Z,9.20
2023-03-26T16:46:42.192Z,9.20
2023-03-26T16:49:27.533Z,9.10
2023-03-26T16:52:20.486Z,9.10
2023-03-26T16:55:03.910Z,9.00
2023-03-26T16:57:56.150Z,9.00
2023-03-26T17:00:35.782Z,9.00
2023-03-26T17:04:04.542Z,9.00
2023-03-26T17:06:56.622Z,8.90
2023-03-26T17:09:46.655Z,8.90
2023-03-26T17:12:19.263Z,8.90
2023-03-26T17:15:06.454Z,8.90
2023-03-26T17:18:11.540Z,8.90
2023-03-26T17:21:04.006Z,8.90
2023-03-26T17:23:54.787Z,8.90
2023-03-26T17:26:39.081Z,8.80
2023-03-26T17:29:09.963Z,8.80
2023-03-26T17:31:56.883Z,8.70
2023-03-26T17:34:45.485Z,8.60
2023-03-26T17:37:22.028Z,8.50
2023-03-26T17:39:55.948Z,8.40
2023-03-26T17:42:33.514Z,8.30
2023-03-26T17:50:56.728Z,8.30
2023-03-26T17:53:31.249Z,8.20
2023-03-26T17:56:03.886Z,8.10
2023-03-26T17:58:37.559Z,8.00
2023-03-26T18:01:28.904Z,8.00
2023-03-26T18:04:00.470Z,8.00
2023-03-26T18:06:52.769Z,8.00
2023-03-26T18:09:58.327Z,7.90
2023-03-26T18:13:03.489Z,7.90
2023-03-26T18:15:57.244Z,7.90
2023-03-26T18:19:18.839Z,7.80
2023-03-26T18:22:14.752Z,7.80
2023-03-26T18:24:44.022Z,7.60
2023-03-26T18:27:14.812Z,7.60
2023-03-26T18:30:02.778Z,7.60
2023-03-26T18:32:33.790Z,7.60
2023-03-26T18:35:17.088Z,7.50
2023-03-26T18:37:46.094Z,7.50
2023-03-26T18:40:20.248Z,7.40
2023-03-26T18:42:51.769Z,7.40
2023-03-26T18:45:27.854Z,7.50
2023-03-26T18:48:06.029Z,7.40
2023-03-26T18:50:36.975Z,7.40
2023-03-26T18:53:07.428Z,7.40
2023-03-26T18:55:39.582Z,7.40
2023-03-26T18:58:23.617Z,7.40
2023-03-26T19:01:25.417Z,7.40
2023-03-26T19:03:54.622Z,9.20
2023-03-26T19:06:23.458Z,7.20
2023-03-26T19:08:52.406Z,7.40
2023-03-26T19:11:20.709Z,7.40
2023-03-26T19:14:04.087Z,7.40
2023-03-26T19:16:35.802Z,7.40
2023-03-26T19:19:07.302Z,7.40
2023-03-26T19:21:36.611Z,7.40
2023-03-26T19:24:05.621Z,7.30
2023-03-26T19:26:34.257Z,7.40
2023-03-26T19:29:02.949Z,7.30
2023-03-26T19:31:39.186Z,7.30
2023-03-26T19:34:17.502Z,7.30
2023-03-26T19:37:02.010Z,7.30
2023-03-26T19:39:44.823Z,7.30
2023-03-26T19:42:16.200Z,7.30
2023-03-26T19:44:44.519Z,7.30
2023-03-26T19:47:19.669Z,7.30
2023-03-26T19:52:21.670Z,7.30
2023-03-26T19:55:00.244Z,7.30
2023-03-26T19:57:32.491Z,7.30
2023-03-26T20:00:01.184Z,7.30
2023-03-26T20:02:29.095Z,7.30
2023-03-26T20:04:57.446Z,7.30
2023-03-26T20:07:35.799Z,7.30
2023-03-26T20:10:05.736Z,7.20
2023-03-26T20:12:33.657Z,7.20
2023-03-26T20:15:02.132Z,7.20
2023-03-26T20:19:59.689Z,7.10
2023-03-26T20:22:27.420Z,7.10
2023-03-26T20:24:55.126Z,7.10
2023-03-26T20:27:22.897Z,7.10
2023-03-26T20:29:50.496Z,7.10
2023-03-26T20:32:26.373Z,7.10
2023-03-26T20:34:54.924Z,7.00
2023-03-26T20:37:22.769Z,7.10
2023-03-26T20:39:50.683Z,7.00
2023-03-26T20:42:18.413Z,7.00
2023-03-26T20:44:46.985Z,7.00
2023-03-26T20:47:14.613Z,7.00
2023-03-26T20:49:43.211Z,7.00
2023-03-26T20:52:13.608Z,6.90
2023-03-26T20:54:41.888Z,6.90
2023-03-26T20:57:13.330Z,6.90
2023-03-26T20:59:42.047Z,6.90
2023-03-26T21:02:11.988Z,6.90
2023-03-26T21:04:39.903Z,6.90
2023-03-26T21:07:17.572Z,6.90
2023-03-26T21:09:49.330Z,6.90
2023-03-26T21:12:32.246Z,6.90
2023-03-26T21:15:00.490Z,6.80
2023-03-26T21:17:29.550Z,6.80
2023-03-26T21:20:02.500Z,6.80
2023-03-26T21:23:00.174Z,6.80
2023-03-26T21:26:01.497Z,6.80
2023-03-26T21:28:46.716Z,6.80
2023-03-26T21:31:20.437Z,6.80
2023-03-26T21:33:49.520Z,6.80
2023-03-26T21:36:19.824Z,6.80
2023-03-26T21:38:48.025Z,6.80
2023-03-26T21:41:43.912Z,6.80
2023-03-26T21:44:11.813Z,6.70
2023-03-26T21:46:45.011Z,6.70
2023-03-26T21:49:14.815Z,6.70
2023-03-26T21:51:43.093Z,6.70
2023-03-26T21:54:28.666Z,6.70
2023-03-26T21:57:14.274Z,6.70
2023-03-26T21:59:44.838Z,6.70
2023-03-26T22:02:35.859Z,7.10
2023-03-26T22:05:17.111Z,6.70
2023-03-26T22:08:01.653Z,6.70
2023-03-26T22:10:30.886Z,6.60
2023-03-26T22:12:58.884Z,6.60
2023-03-26T22:15:30.454Z,6.60
2023-03-26T22:18:02.088Z,6.60
2023-03-26T22:20:29.919Z,6.50
2023-03-26T22:22:58.687Z,6.50
2023-03-26T22:25:26.477Z,6.50
2023-03-26T22:27:54.020Z,6.50
2023-03-26T22:30:21.879Z,6.50
2023-03-26T22:32:50.276Z,6.50
2023-03-26T22:35:18.149Z,6.50
2023-03-26T22:37:46.230Z,6.50
2023-03-26T22:40:13.844Z,6.50
2023-03-26T22:42:41.996Z,6.40
2023-03-26T22:45:10.802Z,6.40
2023-03-26T22:47:38.490Z,6.40
2023-03-26T22:50:07.648Z,6.40
2023-03-26T22:52:36.544Z,6.40
2023-03-26T22:55:05.365Z,6.40
2023-03-26T22:57:33.481Z,6.40
2023-03-26T23:00:12.579Z,6.40
2023-03-26T23:02:40.741Z,6.40
2023-03-26T23:05:08.775Z,6.40
2023-03-26T23:07:37.483Z,6.40
2023-03-26T23:10:06.234Z,6.40
2023-03-26T23:12:33.909Z,6.40
2023-03-26T23:15:05.007Z,6.40
2023-03-26T23:17:35.324Z,6.40
2023-03-26T23:20:06.192Z,6.40
2023-03-26T23:22:35.353Z,6.40
2023-03-26T23:25:03.321Z,6.30
2023-03-26T23:27:30.904Z,6.30
2023-03-26T23:29:58.598Z,6.30
2023-03-26T23:32:26.232Z,6.30
2023-03-26T23:34:56.780Z,6.30
2023-03-26T23:37:24.424Z,6.20
2023-03-26T23:39:52.665Z,6.10
2023-03-26T23:42:28.608Z,6.10
2023-03-26T23:44:57.733Z,5.90
2023-03-26T23:47:25.357Z,5.70
2023-03-26T23:49:52.964Z,5.70
2023-03-26T23:52:20.519Z,5.50
2023-03-26T23:54:48.106Z,5.40
2023-03-26T23:57:16.070Z,5.10
2023-03-26T23:59:43.869Z,5.10
